Time;durP1;ratioP1;P1;durP2;ratioP2;P2;SDS_P1;SDS_P2;PMS_P1;PMS_P2;Temp;Humidity;BMP_temperature;BMP_pressure;BME280_temperature;BME280_humidity;BME280_pressure;Samples;Min_cycle;Max_cycle;Signal;HPM_P1;HPM_P2
2023/06/23 00:00:25;;;;;;;4.85;2.70;;;;;;;27.88;57.86;99721.31;4464414;31;32302;-86
2023/06/23 00:03:00;;;;;;;26.35;2.28;;;;;;;27.85;57.93;99710.81;4472694;31;33434;-85
2023/06/23 00:05:28;;;;;;;3.12;2.33;;;;;;;27.99;57.63;99711.91;4483694;31;33868;-85
2023/06/23 00:07:56;;;;;;;1.65;1.55;;;;;;;27.78;58.01;99716.12;4480414;31;34774;-86
2023/06/23 00:10:23;;;;;;;2.67;1.92;;;;;;;27.81;57.99;99709.47;4471029;31;33800;-86
2023/06/23 00:12:51;;;;;;;2.50;2.37;;;;;;;27.81;57.91;99710.31;4474699;32;32036;-87
2023/06/23 00:15:19;;;;;;;3.42;2.70;;;;;;;27.80;57.95;99711.34;4477467;31;34322;-88
2023/06/23 00:17:47;;;;;;;2.12;1.98;;;;;;;27.96;57.46;99706.81;4474420;31;33384;-89
2023/06/23 00:20:15;;;;;;;2.35;2.15;;;;;;;27.99;57.20;99695.63;4470103;31;33651;-87
2023/06/23 00:22:44;;;;;;;2.10;1.90;;;;;;;27.67;58.18;99697.50;4475889;31;32879;-87
2023/06/23 00:25:12;;;;;;;1.30;1.23;;;;;;;27.68;58.02;99688.37;4474273;31;32356;-86
2023/06/23 00:27:41;;;;;;;2.35;1.70;;;;;;;27.65;58.14;99694.13;4482880;31;34273;-86
2023/06/23 00:30:11;;;;;;;2.03;1.75;;;;;;;27.64;58.13;99703.31;4478774;31;34096;-86
2023/06/23 00:32:40;;;;;;;1.67;1.40;;;;;;;27.62;58.11;99708.03;4471670;31;33401;-87
2023/06/23 00:35:08;;;;;;;2.35;2.15;;;;;;;27.58;58.35;99720.28;4473395;31;33785;-86
2023/06/23 00:37:37;;;;;;;3.05;1.73;;;;;;;27.81;57.47;99715.75;4463565;31;33342;-86
2023/06/23 00:40:12;;;;;;;3.25;2.28;;;;;;;27.83;57.46;99714.75;4472188;31;31868;-87
2023/06/23 00:42:52;;;;;;;3.22;2.92;;;;;;;28.06;56.94;99711.00;4471813;31;31908;-87
2023/06/23 00:45:21;;;;;;;5.00;2.15;;;;;;;27.92;57.41;99716.38;4476260;31;32896;-86
2023/06/23 00:47:51;;;;;;;5.28;1.83;;;;;;;27.66;58.07;99717.53;4466526;31;33070;-86
2023/06/23 00:50:20;;;;;;;1.55;1.45;;;;;;;27.43;58.74;99716.63;4476215;31;33880;-86
2023/06/23 00:52:52;;;;;;;6.18;2.83;;;;;;;27.42;58.74;99713.09;4480376;31;32978;-86
2023/06/23 00:55:21;;;;;;;2.25;1.62;;;;;;;27.39;58.82;99715.31;4472147;31;34605;-86
2023/06/23 00:57:50;;;;;;;11.45;2.50;;;;;;;27.27;59.13;99699.44;4489217;31;33881;-86
2023/06/23 01:00:19;;;;;;;3.40;1.87;;;;;;;27.32;58.98;99698.91;4457847;31;32777;-86
2023/06/23 01:02:52;;;;;;;3.12;2.78;;;;;;;27.27;59.17;99694.00;4491223;31;33330;-86
2023/06/23 01:05:37;;;;;;;2.58;2.30;;;;;;;27.43;58.74;99684.09;4491130;31;33850;-86
2023/06/23 01:08:43;;;;;;;1.83;1.73;;;;;;;27.21;59.31;99675.75;4477837;31;35313;-86
2023/06/23 01:11:20;;;;;;;3.75;3.45;;;;;;;27.15;59.38;99681.87;4475106;31;32661;-86
2023/06/23 01:14:13;;;;;;;2.20;2.00;;;;;;;27.17;59.25;99679.00;4484663;31;31888;-85
2023/06/23 01:16:47;;;;;;;5.10;1.45;;;;;;;27.19;59.06;99677.78;4474057;31;34786;-86
2023/06/23 01:19:40;;;;;;;2.22;1.30;;;;;;;27.13;59.44;99666.81;4473588;31;34015;-86
2023/06/23 01:22:33;;;;;;;5.37;3.08;;;;;;;26.90;60.10;99675.69;4470522;31;33815;-86
2023/06/23 01:25:11;;;;;;;1.37;1.35;;;;;;;27.17;59.24;99673.59;4478465;31;32805;-86
2023/06/23 01:28:07;;;;;;;1.15;1.15;;;;;;;27.17;59.11;99669.00;4489612;31;34308;-86
2023/06/23 01:30:37;;;;;;;2.37;2.17;;;;;;;27.20;59.04;99668.63;4491575;31;33758;-86
2023/06/23 01:33:10;;;;;;;1.73;1.48;;;;;;;26.97;59.60;99662.28;4468565;31;32265;-85
2023/06/23 01:35:43;;;;;;;2.67;2.53;;;;;;;26.86;60.08;99665.37;4471745;31;31836;-86
2023/06/23 01:38:27;;;;;;;6.47;3.28;;;;;;;26.86;59.98;99665.37;4481993;31;33635;-86
2023/06/23 01:40:57;;;;;;;5.12;2.55;;;;;;;26.88;59.98;99663.34;4491176;31;34812;-85
2023/06/23 01:43:29;;;;;;;2.47;1.85;;;;;;;26.83;60.16;99663.03;4478547;31;33190;-85
2023/06/23 01:46:08;;;;;;;;;;;;;;;26.73;60.38;99671.31;4482620;31;33407;-85
2023/06/23 01:48:42;;;;;;;2.72;2.40;;;;;;;26.81;60.33;99682.97;4463365;32;33835;-87
2023/06/23 01:51:11;;;;;;;1.77;1.67;;;;;;;26.73;60.54;99699.28;4467381;31;33584;-87
2023/06/23 01:53:39;;;;;;;2.45;2.10;;;;;;;26.65;60.68;99712.00;4480926;31;33841;-87
2023/06/23 01:56:07;;;;;;;1.45;1.35;;;;;;;26.80;60.10;99711.09;4477758;31;33191;-87
2023/06/23 01:58:37;;;;;;;4.18;3.22;;;;;;;26.77;60.21;99703.31;4477664;31;32413;-87
2023/06/23 02:01:06;;;;;;;2.95;2.67;;;;;;;27.10;59.28;99694.25;4462452;31;32975;-87
2023/06/23 02:03:34;;;;;;;1.48;1.37;;;;;;;26.79;60.18;99698.59;4471618;31;32224;-86
2023/06/23 02:06:03;;;;;;;2.00;1.90;;;;;;;26.62;60.42;99696.09;4469588;31;32775;-87
2023/06/23 02:08:33;;;;;;;3.05;2.72;;;;;;;26.37;61.56;99711.50;4473951;31;34253;-87
2023/06/23 02:11:02;;;;;;;3.47;2.03;;;;;;;26.43;61.32;99713.53;4473719;32;32210;-87
2023/06/23 02:13:30;;;;;;;1.92;1.75;;;;;;;26.51;60.97;99708.97;4481001;31;34445;-88
2023/06/23 02:16:02;;;;;;;1.50;1.40;;;;;;;26.59;60.60;99700.00;4481444;31;33451;-88
2023/06/23 02:18:35;;;;;;;1.83;1.73;;;;;;;26.52;60.82;99693.56;4469363;31;33911;-87
2023/06/23 02:21:05;;;;;;;5.05;3.05;;;;;;;26.42;61.04;99695.59;4477717;31;34423;-86
2023/06/23 02:23:33;;;;;;;1.62;1.52;;;;;;;26.52;60.77;99698.97;4499449;31;33766;-87
2023/06/23 02:26:02;;;;;;;2.37;2.17;;;;;;;26.53;60.66;99692.53;4492715;31;33318;-87
2023/06/23 02:28:30;;;;;;;8.93;2.92;;;;;;;26.45;60.97;99695.28;4467126;32;32787;-87
2023/06/23 02:30:58;;;;;;;2.25;1.65;;;;;;;26.48;60.59;99692.22;4470379;31;32489;-87
2023/06/23 02:33:26;;;;;;;2.55;2.35;;;;;;;26.24;61.47;99699.31;4477598;31;33589;-86
2023/06/23 02:35:56;;;;;;;4.72;2.28;;;;;;;26.16;61.99;99704.75;4472647;31;33336;-87
2023/06/23 02:38:25;;;;;;;2.58;2.00;;;;;;;26.35;61.26;99699.97;4464358;32;34355;-87
2023/06/23 02:40:53;;;;;;;3.60;3.30;;;;;;;26.35;61.17;99699.97;4464109;32;34293;-86
2023/06/23 02:43:31;;;;;;;2.72;1.65;;;;;;;26.42;61.04;99690.16;4475725;31;34545;-86
2023/06/23 02:46:00;;;;;;;2.40;2.22;;;;;;;26.67;60.16;99689.13;4485789;31;32021;-86
2023/06/23 02:48:37;;;;;;;2.62;2.42;;;;;;;26.51;60.28;99684.59;4478037;31;33657;-87
2023/06/23 02:51:06;;;;;;;3.58;1.92;;;;;;;26.35;61.14;99686.44;4487879;31;33770;-87
2023/06/23 02:53:35;;;;;;;7.90;3.08;;;;;;;26.26;61.18;99689.19;4484149;31;34426;-87
2023/06/23 02:56:07;;;;;;;3.42;2.15;;;;;;;26.34;60.94;99688.31;4487769;31;32815;-88
2023/06/23 02:58:35;;;;;;;;;;;;;;;26.19;61.51;99688.16;4487653;31;33603;-87
2023/06/23 03:01:04;;;;;;;1.62;1.52;;;;;;;26.29;61.44;99678.00;4474785;32;33981;-87
2023/06/23 03:03:37;;;;;;;1.80;1.30;;;;;;;26.16;61.76;99685.81;4471508;31;34592;-87
2023/06/23 03:06:05;;;;;;;2.83;1.27;;;;;;;26.28;61.17;99689.00;4471373;31;33348;-87
2023/06/23 03:08:32;;;;;;;4.43;1.75;;;;;;;26.27;61.12;99696.28;4484224;31;32860;-86
2023/06/23 03:11:00;;;;;;;1.48;1.37;;;;;;;26.33;60.87;99696.63;4480042;31;32604;-86
2023/06/23 03:13:28;;;;;;;2.37;2.08;;;;;;;26.27;60.99;99692.72;4472177;31;32374;-87
2023/06/23 03:15:58;;;;;;;1.27;1.17;;;;;;;26.25;61.03;99697.44;4482209;31;33520;-87
2023/06/23 03:18:29;;;;;;;4.00;2.58;;;;;;;26.24;61.06;99698.47;4474942;32;33582;-88
2023/06/23 03:20:59;;;;;;;2.90;2.70;;;;;;;26.23;61.27;99696.78;4464150;31;32598;-88
2023/06/23 03:23:28;;;;;;;2.60;2.40;;;;;;;26.13;61.40;99704.25;4471840;31;32306;-88
2023/06/23 03:25:56;;;;;;;2.67;2.47;;;;;;;26.20;61.21;99706.06;4479770;31;32739;-88
2023/06/23 03:28:31;;;;;;;1.45;1.35;;;;;;;26.50;59.97;99699.16;4462299;31;33176;-87
2023/06/23 03:31:07;;;;;;;2.58;1.20;;;;;;;26.43;60.25;99713.53;4485628;31;34911;-86
2023/06/23 03:33:38;;;;;;;3.00;1.55;;;;;;;26.33;61.02;99712.84;4475501;31;32050;-86
2023/06/23 03:36:16;;;;;;;2.80;2.03;;;;;;;26.29;61.19;99715.03;4470383;31;31600;-86
2023/06/23 03:38:47;;;;;;;2.45;2.22;;;;;;;26.28;61.34;99730.44;4462234;31;33284;-85
2023/06/23 03:41:15;;;;;;;2.75;1.95;;;;;;;26.25;61.49;99722.69;4470613;31;32628;-86
2023/06/23 03:43:56;;;;;;;3.67;2.00;;;;;;;26.35;61.21;99727.03;4468219;31;33745;-86
2023/06/23 03:46:46;;;;;;;2.80;1.83;;;;;;;26.24;61.77;99718.25;4472883;31;32000;-86
2023/06/23 03:49:15;;;;;;;2.50;1.83;;;;;;;26.43;61.10;99710.84;4471688;31;33151;-87
2023/06/23 03:51:43;;;;;;;1.42;1.33;;;;;;;26.38;61.04;99707.78;4476704;31;34709;-87
2023/06/23 03:54:12;;;;;;;3.05;2.37;;;;;;;26.42;60.69;99703.72;4475413;31;33238;-86
2023/06/23 03:56:42;;;;;;;1.50;1.40;;;;;;;26.55;60.43;99713.03;4478657;31;31993;-87
2023/06/23 03:59:10;;;;;;;1.83;1.73;;;;;;;26.56;60.34;99713.88;4470257;31;32547;-87
2023/06/23 04:01:40;;;;;;;1.75;1.25;;;;;;;26.60;60.31;99726.06;4480854;31;33667;-86
2023/06/23 04:04:09;;;;;;;1.98;1.85;;;;;;;26.68;60.34;99728.75;4485894;31;34506;-86
2023/06/23 04:06:37;;;;;;;2.37;1.95;;;;;;;26.68;60.42;99731.47;4477974;31;33212;-86
2023/06/23 04:09:06;;;;;;;9.75;1.45;;;;;;;26.88;59.82;99737.34;4462028;31;33414;-86
2023/06/23 04:11:35;;;;;;;2.08;1.77;;;;;;;27.04;59.33;99731.00;4487341;31;33875;-85
2023/06/23 04:14:04;;;;;;;2.42;1.70;;;;;;;27.16;58.66;99716.09;4465088;31;33793;-88
2023/06/23 04:16:35;;;;;;;2.40;2.30;;;;;;;27.00;58.57;99732.38;4483199;31;33407;-88
2023/06/23 04:19:05;;;;;;;6.87;3.40;;;;;;;26.96;58.82;99722.91;4465048;31;34892;-88
2023/06/23 04:21:33;;;;;;;1.83;1.73;;;;;;;26.74;60.07;99728.06;4484923;31;32271;-88
2023/06/23 04:24:03;;;;;;;1.80;1.67;;;;;;;27.06;58.86;99737.09;4458536;32;34225;-88
2023/06/23 04:26:34;;;;;;;1.77;1.67;;;;;;;27.19;58.51;99728.44;4460908;31;32053;-88
2023/06/23 04:29:06;;;;;;;4.70;2.17;;;;;;;27.15;58.67;99724.38;4457874;31;33298;-86
2023/06/23 04:31:34;;;;;;;2.87;2.00;;;;;;;27.38;58.15;99719.03;4476328;31;33745;-85
2023/06/23 04:34:02;;;;;;;3.15;2.15;;;;;;;27.58;57.42;99725.69;4466086;31;32197;-85
2023/06/23 04:36:37;;;;;;;1.75;1.65;;;;;;;27.54;57.78;99722.53;4472261;31;31683;-85
2023/06/23 04:39:31;;;;;;;1.00;1.00;;;;;;;27.53;57.92;99723.53;4471571;31;32798;-85
2023/06/23 04:42:03;;;;;;;2.33;1.90;;;;;;;27.62;57.33;99716.19;4484507;31;32709;-85
2023/06/23 04:44:36;;;;;;;2.72;2.05;;;;;;;27.68;56.97;99712.78;4479580;31;32703;-85
2023/06/23 04:47:05;;;;;;;1.12;1.12;;;;;;;27.42;57.74;99720.38;4479937;31;33341;-86
2023/06/23 04:49:33;;;;;;;2.42;2.08;;;;;;;27.40;57.94;99723.28;4478633;31;33818;-85
2023/06/23 04:52:03;;;;;;;4.40;2.28;;;;;;;27.47;57.96;99712.56;4470643;31;34675;-86
2023/06/23 04:54:40;;;;;;;1.92;1.83;;;;;;;27.69;57.02;99705.47;4468789;31;32462;-85
2023/06/23 04:57:10;;;;;;;1.73;1.45;;;;;;;27.60;57.29;99720.13;4481932;31;32919;-86
2023/06/23 04:59:40;;;;;;;2.40;1.50;;;;;;;27.74;57.09;99727.53;4482951;31;34775;-85
2023/06/23 05:02:11;;;;;;;2.58;1.50;;;;;;;27.66;56.97;99711.25;4482583;31;33524;-86
2023/06/23 05:04:41;;;;;;;7.22;1.83;;;;;;;27.49;57.39;99711.37;4466250;32;33563;-88
2023/06/23 05:07:12;;;;;;;1.80;1.70;;;;;;;28.06;55.71;99710.16;4490168;31;33660;-87
2023/06/23 05:09:42;;;;;;;2.47;1.98;;;;;;;27.92;55.45;99721.81;4470289;31;32471;-86
2023/06/23 05:12:11;;;;;;;2.50;2.22;;;;;;;27.53;56.69;99712.66;4472865;31;33386;-85
2023/06/23 05:14:40;;;;;;;1.90;1.75;;;;;;;27.77;55.75;99708.16;4455341;31;32405;-86
2023/06/23 05:17:10;;;;;;;1.62;1.52;;;;;;;27.75;55.96;99704.78;4467219;32;32333;-86
2023/06/23 05:19:41;;;;;;;2.22;2.05;;;;;;;27.91;55.50;99701.09;4467617;31;33980;-86
2023/06/23 05:22:11;;;;;;;2.85;2.58;;;;;;;28.05;55.43;99705.72;4466661;31;33234;-86
2023/06/23 05:24:43;;;;;;;1.33;1.33;;;;;;;28.26;55.01;99724.91;4468650;31;32657;-86
2023/06/23 05:27:11;;;;;;;2.12;1.75;;;;;;;28.42;54.18;99720.38;4221105;31;8079540;-86
2023/06/23 05:29:44;;;;;;;2.87;2.55;;;;;;;28.36;54.61;99719.25;4474283;31;33276;-85
2023/06/23 05:32:14;;;;;;;4.35;2.17;;;;;;;28.45;54.18;99712.72;4472753;31;32409;-87
2023/06/23 05:34:43;;;;;;;6.70;2.83;;;;;;;28.67;53.95;99721.81;4458052;31;30826;-87
2023/06/23 05:37:11;;;;;;;4.35;2.20;;;;;;;28.63;53.72;99715.09;4460156;31;31970;-87
2023/06/23 05:39:40;;;;;;;2.42;2.22;;;;;;;28.73;53.34;99717.53;4462350;31;32542;-87
2023/06/23 05:42:07;;;;;;;2.37;2.17;;;;;;;28.65;53.16;99714.91;4471237;31;32148;-87
2023/06/23 05:44:36;;;;;;;4.05;2.03;;;;;;;28.55;53.80;99720.59;4467243;31;34441;-87
2023/06/23 05:47:06;;;;;;;1.85;1.75;;;;;;;28.78;53.05;99720.53;4468891;31;35455;-87
2023/06/23 05:49:39;;;;;;;6.83;3.13;;;;;;;28.66;53.40;99717.44;4486430;31;32685;-88
2023/06/23 05:52:06;;;;;;;;;;;;;;;28.77;53.13;99711.56;4472876;31;33735;-87
2023/06/23 05:54:35;;;;;;;1.95;1.75;;;;;;;28.74;53.34;99711.06;4456263;31;33800;-87
2023/06/23 05:57:07;;;;;;;2.03;1.90;;;;;;;28.84;52.95;99715.19;4469315;31;33298;-87
2023/06/23 05:59:45;;;;;;;2.80;2.60;;;;;;;28.81;53.22;99712.84;4475167;31;31503;-87
2023/06/23 06:02:18;;;;;;;3.20;2.20;;;;;;;28.72;53.66;99703.13;4482206;31;34068;-87
2023/06/23 06:04:54;;;;;;;2.58;2.35;;;;;;;28.94;53.06;99700.47;4481907;31;33382;-88
2023/06/23 06:07:22;;;;;;;2.70;2.08;;;;;;;28.90;53.03;99693.72;4474882;31;33663;-88
2023/06/23 06:09:51;;;;;;;2.72;2.53;;;;;;;28.96;52.87;99704.75;4460038;31;32368;-87
2023/06/23 06:12:18;;;;;;;2.97;2.17;;;;;;;29.28;52.90;99695.31;4467641;31;32570;-87
2023/06/23 06:14:47;;;;;;;6.57;2.70;;;;;;;29.70;51.15;99685.56;4475183;31;34040;-87
2023/06/23 06:17:16;;;;;;;4.28;1.67;;;;;;;29.71;51.35;99689.13;4482133;31;34337;-87
2023/06/23 06:19:44;;;;;;;20.20;2.42;;;;;;;29.51;51.41;99683.44;4453776;31;32168;-88
2023/06/23 06:22:12;;;;;;;2.25;1.20;;;;;;;29.23;52.47;99677.88;4463077;31;33425;-87
2023/06/23 06:24:43;;;;;;;2.45;2.05;;;;;;;29.52;51.97;99666.09;4466705;31;32232;-86
2023/06/23 06:27:12;;;;;;;3.65;2.87;;;;;;;29.75;52.10;99677.66;4477393;31;33189;-86
2023/06/23 06:29:41;;;;;;;12.00;2.65;;;;;;;29.49;51.60;99671.94;4468325;32;33709;-88
2023/06/23 06:32:09;;;;;;;3.08;2.83;;;;;;;29.95;50.93;99669.69;4467836;31;32114;-87
2023/06/23 06:34:39;;;;;;;2.08;1.52;;;;;;;29.64;51.50;99669.19;4479317;31;33937;-86
2023/06/23 06:37:07;;;;;;;10.27;2.50;;;;;;;29.98;50.81;99665.75;4470213;31;33835;-85
2023/06/23 06:39:37;;;;;;;2.25;2.15;;;;;;;30.04;50.97;99665.78;4473805;31;34166;-85
2023/06/23 06:42:05;;;;;;;2.03;1.92;;;;;;;30.01;51.27;99660.75;4467284;31;32684;-86
2023/06/23 06:44:34;;;;;;;4.07;2.97;;;;;;;30.04;50.30;99656.78;4474464;31;32765;-85
2023/06/23 06:47:07;;;;;;;1.90;1.70;;;;;;;29.93;50.63;99650.00;4469091;31;33511;-85
2023/06/23 06:49:35;;;;;;;3.70;2.92;;;;;;;30.01;50.93;99651.75;4464980;31;31506;-85
2023/06/23 06:52:03;;;;;;;1.87;1.77;;;;;;;30.06;51.51;99646.56;4470035;31;32541;-85
2023/06/23 06:54:32;;;;;;;3.20;2.15;;;;;;;30.52;50.59;99644.19;4467218;31;33108;-85
2023/06/23 06:57:00;;;;;;;12.50;1.90;;;;;;;30.34;50.49;99644.72;4470489;31;32357;-84
2023/06/23 06:59:27;;;;;;;2.50;2.30;;;;;;;30.54;50.00;99663.91;4466969;31;33736;-87
2023/06/23 07:01:55;;;;;;;3.83;3.50;;;;;;;30.31;49.83;99666.03;4472966;31;33931;-87
2023/06/23 07:04:24;;;;;;;2.83;2.60;;;;;;;30.39;50.07;99665.91;4471404;31;33988;-87
2023/06/23 07:06:53;;;;;;;6.25;2.30;;;;;;;30.50;49.89;99659.06;4472368;31;34401;-87
2023/06/23 07:09:21;;;;;;;4.12;2.35;;;;;;;30.74;49.82;99655.03;4481494;31;33231;-86
2023/06/23 07:11:50;;;;;;;3.53;2.00;;;;;;;30.89;49.07;99663.94;4462668;31;33761;-87
2023/06/23 07:14:35;;;;;;;1.48;1.37;;;;;;;31.30;48.83;99665.81;4469171;31;32604;-89
2023/06/23 07:17:03;;;;;;;;;;;;;;;31.27;48.26;99658.87;4489668;31;33239;-87
2023/06/23 07:19:40;;;;;;;2.67;1.87;;;;;;;31.16;48.46;99653.16;4458345;32;32956;-91
2023/06/23 07:22:13;;;;;;;3.28;2.78;;;;;;;31.29;48.43;99653.22;4476946;31;33813;-88
2023/06/23 07:24:41;;;;;;;2.50;2.30;;;;;;;31.45;48.20;99646.56;4450953;31;32792;-88
2023/06/23 07:27:09;;;;;;;3.03;2.70;;;;;;;31.49;48.16;99650.56;4456481;31;33149;-87
2023/06/23 07:29:36;;;;;;;7.25;2.35;;;;;;;31.91;47.79;99651.28;4470722;31;32152;-88
2023/06/23 07:32:08;;;;;;;2.17;2.03;;;;;;;32.10;46.84;99645.00;4450348;31;32811;-88
2023/06/23 07:34:42;;;;;;;2.20;2.10;;;;;;;31.64;47.30;99648.47;4479846;31;34280;-88
2023/06/23 07:37:10;;;;;;;9.38;3.80;;;;;;;32.14;46.88;99640.75;4480839;31;33244;-88
2023/06/23 07:39:38;;;;;;;3.08;2.87;;;;;;;32.15;46.57;99647.94;4465053;32;33121;-88
2023/06/23 07:42:05;;;;;;;3.75;3.40;;;;;;;32.03;46.88;99644.13;4454388;31;32742;-88
2023/06/23 07:44:36;;;;;;;6.75;2.90;;;;;;;31.86;47.65;99650.03;4460516;31;33968;-87
2023/06/23 07:47:04;;;;;;;2.87;2.67;;;;;;;32.03;47.32;99646.88;4468684;31;33740;-88
2023/06/23 07:49:31;;;;;;;7.50;4.05;;;;;;;32.04;47.12;99643.06;4482573;31;32271;-88
2023/06/23 07:52:00;;;;;;;5.37;2.67;;;;;;;32.41;46.02;99641.63;4460633;31;32568;-87
2023/06/23 07:54:28;;;;;;;2.75;2.55;;;;;;;32.37;46.52;99646.66;4468718;31;32963;-87
2023/06/23 07:56:56;;;;;;;3.85;2.58;;;;;;;32.54;45.51;99640.75;4472339;31;34036;-87
2023/06/23 07:59:25;;;;;;;4.05;2.15;;;;;;;32.27;46.21;99640.75;4458528;31;33148;-87
2023/06/23 08:01:54;;;;;;;8.00;3.70;;;;;;;32.40;46.29;99647.31;4482678;31;33981;-87
2023/06/23 08:04:22;;;;;;;3.72;2.37;;;;;;;32.75;46.22;99648.69;4456589;31;32898;-87
2023/06/23 08:06:50;;;;;;;4.25;3.03;;;;;;;32.80;45.59;99640.66;4480428;31;33765;-87
2023/06/23 08:09:18;;;;;;;4.30;2.15;;;;;;;32.65;45.97;99642.00;4456091;31;32741;-87
2023/06/23 08:11:46;;;;;;;4.72;3.12;;;;;;;33.31;44.80;99630.81;4467165;31;33209;-88
2023/06/23 08:14:13;;;;;;;3.90;2.78;;;;;;;32.81;45.19;99634.16;4469433;31;32890;-88
2023/06/23 08:16:42;;;;;;;2.85;2.53;;;;;;;32.95;44.99;99634.13;4465411;31;33653;-87
2023/06/23 08:19:10;;;;;;;3.90;2.92;;;;;;;33.48;44.59;99634.75;4483006;31;33767;-88
2023/06/23 08:21:38;;;;;;;3.60;3.30;;;;;;;33.32;44.20;99638.78;4481586;31;32934;-87
2023/06/23 08:24:06;;;;;;;3.28;2.60;;;;;;;33.20;44.19;99635.09;4470612;31;33750;-87
2023/06/23 08:26:33;;;;;;;3.15;2.85;;;;;;;33.18;44.16;99631.72;4454091;31;33048;-87
2023/06/23 08:29:01;;;;;;;4.07;3.12;;;;;;;33.93;43.67;99631.06;4472628;31;32723;-87
2023/06/23 08:31:31;;;;;;;5.45;2.70;;;;;;;33.69;43.71;99628.06;4467638;31;31185;-87
2023/06/23 08:33:59;;;;;;;3.30;2.97;;;;;;;33.42;43.97;99624.62;4470562;31;34433;-87
2023/06/23 08:36:26;;;;;;;4.22;3.83;;;;;;;33.95;43.93;99629.00;4468228;31;32601;-88
2023/06/23 08:38:54;;;;;;;3.45;3.15;;;;;;;34.03;43.45;99634.16;4467691;31;33456;-87
2023/06/23 08:41:23;;;;;;;3.67;3.37;;;;;;;33.92;42.40;99635.69;4464545;31;33675;-87
2023/06/23 08:43:53;;;;;;;2.87;1.98;;;;;;;34.28;41.46;99632.28;4480324;31;33195;-87
2023/06/23 08:46:23;;;;;;;2.25;2.15;;;;;;;34.22;42.21;99632.31;4483159;31;34079;-87
2023/06/23 08:48:51;;;;;;;3.58;3.08;;;;;;;34.23;42.58;99634.84;4480095;31;33103;-87
2023/06/23 08:51:19;;;;;;;4.30;3.83;;;;;;;34.44;42.25;99630.84;4467085;31;33059;-88
2023/06/23 08:53:47;;;;;;;7.62;3.55;;;;;;;34.31;42.15;99628.22;4454037;31;33146;-86
2023/06/23 08:56:15;;;;;;;3.00;2.70;;;;;;;33.97;42.30;99624.09;4486446;31;32332;-88
2023/06/23 08:58:43;;;;;;;6.25;3.17;;;;;;;34.13;42.79;99626.28;4472052;31;32559;-89
2023/06/23 09:01:10;;;;;;;2.83;2.35;;;;;;;34.22;41.89;99627.66;4460266;31;33598;-89
2023/06/23 09:03:38;;;;;;;3.53;2.78;;;;;;;34.46;41.54;99633.38;4474605;31;32924;-89
2023/06/23 09:06:06;;;;;;;4.30;3.75;;;;;;;34.64;41.46;99630.66;4465365;32;33964;-89
2023/06/23 09:08:34;;;;;;;4.90;3.60;;;;;;;34.37;41.67;99636.41;4473022;31;32103;-88
2023/06/23 09:11:03;;;;;;;4.82;3.40;;;;;;;34.72;41.25;99633.09;4486094;31;32850;-89
2023/06/23 09:13:35;;;;;;;4.32;3.08;;;;;;;35.08;40.88;99636.91;4477335;31;34797;-89
2023/06/23 09:16:04;;;;;;;4.30;3.87;;;;;;;35.61;39.93;99625.25;4470920;31;34388;-89
2023/06/23 09:18:33;;;;;;;5.43;3.42;;;;;;;34.96;40.37;99641.50;4458497;31;32175;-89
2023/06/23 09:21:03;;;;;;;2.67;2.47;;;;;;;35.19;40.64;99647.12;4480845;31;33814;-89
2023/06/23 09:23:32;;;;;;;2.27;2.03;;;;;;;35.21;40.57;99646.88;4475794;31;34405;-89
2023/06/23 09:26:03;;;;;;;3.35;3.08;;;;;;;35.41;39.36;99634.53;4475094;31;32223;-89
2023/06/23 09:28:36;;;;;;;3.42;3.10;;;;;;;35.24;40.02;99630.78;4479354;31;33258;-89
2023/06/23 09:31:14;;;;;;;3.08;2.60;;;;;;;35.72;41.03;99631.81;4469502;32;32549;-88
2023/06/23 09:33:51;;;;;;;4.53;3.42;;;;;;;35.88;41.03;99631.12;4468889;31;33128;-88
2023/06/23 09:36:19;;;;;;;2.58;2.37;;;;;;;36.27;39.14;99629.63;4471322;31;33235;-88
2023/06/23 09:38:49;;;;;;;4.43;3.85;;;;;;;35.80;40.96;99639.69;4472694;31;32995;-88
2023/06/23 09:41:18;;;;;;;3.33;2.72;;;;;;;35.71;40.75;99636.47;4469971;32;32442;-88
2023/06/23 09:43:50;;;;;;;3.08;2.83;;;;;;;35.76;40.32;99639.34;4458595;31;33536;-89
2023/06/23 09:46:20;;;;;;;3.22;2.92;;;;;;;35.31;42.01;99642.50;4486420;31;33740;-87
2023/06/23 09:48:49;;;;;;;5.43;3.40;;;;;;;35.54;41.83;99643.72;4481120;31;33087;-88
2023/06/23 09:51:20;;;;;;;2.87;2.67;;;;;;;35.56;41.31;99649.78;4453673;31;33171;-88
2023/06/23 09:53:50;;;;;;;;;;;;;;;35.48;42.13;99650.13;4471532;31;34090;-88
2023/06/23 09:56:24;;;;;;;4.35;3.33;;;;;;;35.34;41.87;99660.44;4456999;31;32890;-88
2023/06/23 09:58:53;;;;;;;3.35;2.85;;;;;;;35.53;41.23;99666.75;4469521;31;34079;-88
2023/06/23 10:01:21;;;;;;;4.87;2.95;;;;;;;35.28;41.68;99664.94;4477487;31;34206;-91
2023/06/23 10:03:55;;;;;;;3.10;2.62;;;;;;;35.64;40.68;99660.44;4455508;32;33853;-90
2023/06/23 10:06:28;;;;;;;10.38;3.47;;;;;;;35.75;41.07;99659.66;4444630;32;32317;-90
2023/06/23 10:08:59;;;;;;;5.45;3.50;;;;;;;35.73;40.51;99647.22;4457719;32;34070;-89
2023/06/23 10:11:36;;;;;;;6.55;3.42;;;;;;;35.47;41.02;99654.78;4444616;32;32433;-90
2023/06/23 10:14:15;;;;;;;3.42;3.12;;;;;;;35.56;41.57;99655.28;4444812;32;33957;-90
2023/06/23 10:16:44;;;;;;;2.62;2.42;;;;;;;35.48;39.97;99652.88;4445746;32;33436;-92
2023/06/23 10:19:13;;;;;;;3.78;3.05;;;;;;;35.34;40.63;99657.69;4471162;32;33411;-92
2023/06/23 10:21:41;;;;;;;3.67;3.28;;;;;;;35.32;40.07;99652.44;4472895;32;34549;-91
2023/06/23 10:24:13;;;;;;;4.78;3.75;;;;;;;35.18;40.69;99652.81;4460105;32;32923;-92
2023/06/23 10:26:42;;;;;;;3.28;2.37;;;;;;;34.74;41.77;99652.91;4459929;32;33075;-92
2023/06/23 10:29:13;;;;;;;2.42;2.22;;;;;;;35.03;40.58;99653.22;4460500;31;32012;-92
2023/06/23 10:31:43;;;;;;;3.35;3.05;;;;;;;34.88;41.00;99659.06;4475996;31;33269;-92
2023/06/23 10:34:15;;;;;;;4.30;3.40;;;;;;;34.90;41.20;99652.31;4467577;32;32844;-92
2023/06/23 10:36:48;;;;;;;4.18;3.85;;;;;;;34.53;43.02;99650.59;4486220;32;33760;-92
2023/06/23 10:39:15;;;;;;;;;;;;;;;35.15;41.08;99649.47;4473269;32;33636;-92
2023/06/23 10:41:45;;;;;;;4.20;3.08;;;;;;;34.96;41.51;99644.25;4463372;31;33036;-88
2023/06/23 10:44:15;;;;;;;2.28;2.10;;;;;;;34.84;43.50;99650.44;4488436;31;34048;-88
2023/06/23 10:46:42;;;;;;;4.32;3.87;;;;;;;34.86;43.74;99640.09;4468673;31;33568;-89
2023/06/23 10:49:11;;;;;;;3.70;3.40;;;;;;;35.55;40.64;99637.13;4469065;31;33199;-88
2023/06/23 10:51:39;;;;;;;5.55;4.30;;;;;;;35.58;42.11;99620.19;4459910;31;33795;-86
2023/06/23 10:54:07;;;;;;;4.22;3.83;;;;;;;35.43;41.68;99633.50;4482899;31;34760;-87
2023/06/23 10:56:43;;;;;;;4.70;3.45;;;;;;;35.53;40.49;99622.81;4489599;31;33472;-86
2023/06/23 10:59:29;;;;;;;4.05;3.75;;;;;;;35.91;39.79;99620.50;4481321;31;33719;-85
2023/06/23 11:02:00;;;;;;;3.72;3.12;;;;;;;36.08;38.33;99625.31;4486648;31;33931;-86
2023/06/23 11:04:33;;;;;;;2.72;2.58;;;;;;;35.92;38.52;99616.69;4483261;31;32627;-86
2023/06/23 11:07:08;;;;;;;7.37;2.65;;;;;;;36.07;37.34;99618.16;4483421;31;33326;-86
2023/06/23 11:09:39;;;;;;;2.95;2.58;;;;;;;36.33;37.14;99619.63;4476724;31;33461;-86
2023/06/23 11:12:46;;;;;;;2.22;2.05;;;;;;;35.97;36.49;99609.69;4487270;31;33511;-86
2023/06/23 11:15:16;;;;;;;3.30;2.78;;;;;;;36.06;35.45;99611.84;4485137;31;34352;-86
2023/06/23 11:17:46;;;;;;;2.55;2.00;;;;;;;36.28;36.26;99614.84;4476493;31;32512;-86
2023/06/23 11:20:20;;;;;;;1.80;1.67;;;;;;;36.60;36.78;99612.53;4485780;31;31747;-87
2023/06/23 11:23:04;;;;;;;18.30;3.67;;;;;;;36.80;36.35;99606.66;4493716;31;33681;-87
2023/06/23 11:25:41;;;;;;;2.37;2.17;;;;;;;36.67;36.21;99601.44;4485343;31;34045;-87
2023/06/23 11:28:29;;;;;;;3.28;2.97;;;;;;;36.75;36.51;99603.81;4471063;31;32093;-87
2023/06/23 11:31:04;;;;;;;12.55;4.07;;;;;;;36.73;36.67;99603.19;4477816;31;33106;-86
2023/06/23 11:33:34;;;;;;;3.17;2.87;;;;;;;37.23;35.21;99602.59;4476665;31;33632;-87
2023/06/23 11:36:03;;;;;;;3.58;3.28;;;;;;;36.91;36.12;99594.81;4471831;31;32488;-87
2023/06/23 11:38:32;;;;;;;3.67;2.75;;;;;;;36.28;37.11;99601.09;4472894;31;32008;-87
2023/06/23 11:41:01;;;;;;;4.62;3.15;;;;;;;36.52;36.56;99598.34;4467108;31;33325;-87
2023/06/23 11:43:33;;;;;;;5.22;4.03;;;;;;;36.86;34.86;99594.69;4492599;31;34091;-86
2023/06/23 11:46:15;;;;;;;3.15;2.92;;;;;;;36.59;37.36;99588.87;4469385;31;33192;-87
2023/06/23 11:48:43;;;;;;;5.07;3.25;;;;;;;36.21;38.97;99586.62;4471921;31;33702;-87
2023/06/23 11:51:15;;;;;;;5.30;3.40;;;;;;;35.86;41.05;99597.56;4493306;31;33288;-87